Time,TemperatureF,DewpointF,PressureIn,WindDirection,WindDirectionDegrees,WindSpeedMPH,WindSpeedGustMPH,Humidity,HourlyPrecipIn,Conditions,Clouds,dailyrainin,SoftwareType,DateUTC
2013-01-20 00:01:00,44.4,44.2,30.16,NW,315,0.0,0.0,99,0.00,,,0.00,meteohub,2013-01-20 05:01:00,
2013-01-20 00:02:00,44.4,44.2,30.16,NW,315,0.0,0.0,99,0.00,,,0.00,meteohub,2013-01-20 05:02:00,
2013-01-20 00:03:00,44.4,44.2,30.15,NW,315,0.0,0.0,99,0.00,,,0.00,meteohub,2013-01-20 05:03:00,
2013-01-20 00:05:00,44.4,44.2,30.15,NW,315,0.0,0.0,99,0.00,,,0.00,meteohub,2013-01-20 05:05:00,
2013-01-20 00:10:00,44.2,44.1,30.15,NW,315,0.0,0.0,99,0.00,,,0.00,meteohub,2013-01-20 05:10:00,
2013-01-20 00:15:00,44.2,44.1,30.15,NW,315,0.0,0.0,99,0.00,,,0.00,meteohub,2013-01-20 05:15:00,
2013-01-20 00:20:00,44.2,44.1,30.14,NW,315,0.0,0.0,99,0.00,,,0.00,meteohub,2013-01-20 05:20:00,
2013-01-20 00:26:00,44.2,44.1,30.14,NW,315,0.0,0.0,99,0.00,,,0.00,meteohub,2013-01-20 05:26:00,
2013-01-20 00:31:00,44.2,44.1,30.15,NW,315,1.0,0.0,99,0.00,,,0.00,meteohub,2013-01-20 05:31:00,
2013-01-20 00:36:00,44.1,43.9,30.14,NW,315,0.0,1.0,99,0.00,,,0.00,meteohub,2013-01-20 05:36:00,
2013-01-20 00:41:00,44.1,43.9,30.15,NW,315,0.0,1.0,99,0.00,,,0.00,meteohub,2013-01-20 05:41:00,
2013-01-20 00:46:00,43.9,43.7,30.14,NW,315,0.0,1.0,99,0.00,,,0.00,meteohub,2013-01-20 05:46:00,
2013-01-20 00:51:00,43.7,43.5,30.15,NW,315,0.0,0.0,99,0.00,,,0.00,meteohub,2013-01-20 05:51:00,
2013-01-20 00:56:00,43.7,43.5,30.15,NW,315,0.0,0.0,99,0.00,,,0.00,meteohub,2013-01-20 05:56:00,
2013-01-20 01:01:00,43.5,43.3,30.14,NW,315,0.0,0.0,99,0.00,,,0.00,meteohub,2013-01-20 06:01:00,
2013-01-20 01:06:00,43.2,43.0,30.14,South,180,0.0,0.0,99,0.00,,,0.00,meteohub,2013-01-20 06:06:00,
2013-01-20 01:11:00,43.0,42.8,30.15,South,180,0.0,0.0,99,0.00,,,0.00,meteohub,2013-01-20 06:11:00,
2013-01-20 01:16:00,43.0,42.8,30.14,West,270,0.0,0.0,99,0.00,,,0.00,meteohub,2013-01-20 06:16:00,
2013-01-20 01:21:00,43.2,43.0,30.15,West,270,0.0,0.0,99,0.00,,,0.00,meteohub,2013-01-20 06:21:00,
2013-01-20 01:26:00,43.2,43.0,30.14,West,270,0.0,1.0,99,0.00,,,0.00,meteohub,2013-01-20 06:26:00,
2013-01-20 01:32:00,43.0,42.8,30.14,West,270,0.0,1.0,99,0.00,,,0.00,meteohub,2013-01-20 06:32:00,
2013-01-20 01:37:00,42.8,42.6,30.14,West,270,0.0,0.0,99,0.00,,,0.00,meteohub,2013-01-20 06:37:00,
2013-01-20 01:42:00,42.6,42.4,30.14,West,270,0.0,0.0,99,0.00,,,0.00,meteohub,2013-01-20 06:42:00,
2013-01-20 01:47:00,42.4,42.3,30.14,SE,135,0.0,0.0,99,0.00,,,0.00,meteohub,2013-01-20 06:47:00,
2013-01-20 01:52:00,42.4,42.3,30.14,SE,135,0.0,0.0,99,0.00,,,0.00,meteohub,2013-01-20 06:52:00,
2013-01-20 01:57:00,42.4,42.3,30.15,SE,135,0.0,0.0,99,0.00,,,0.00,meteohub,2013-01-20 06:57:00,
2013-01-20 02:03:00,42.6,42.4,30.14,SE,135,0.0,0.0,99,0.00,,,0.00,meteohub,2013-01-20 07:03:00,
2013-01-20 02:08:00,42.6,42.4,30.14,SE,135,0.0,0.0,99,0.00,,,0.00,meteohub,2013-01-20 07:08:00,
2013-01-20 02:13:00,42.8,42.6,30.14,SE,135,0.0,0.0,99,0.00,,,0.00,meteohub,2013-01-20 07:13:00,
2013-01-20 02:18:00,42.8,42.6,30.14,SE,135,0.0,0.0,99,0.00,,,0.00,meteohub,2013-01-20 07:18:00,
2013-01-20 02:23:00,42.8,42.6,30.13,SE,135,0.0,0.0,99,0.00,,,0.00,meteohub,2013-01-20 07:23:00,
2013-01-20 02:28:00,42.8,42.6,30.13,SE,135,0.0,0.0,99,0.00,,,0.00,meteohub,2013-01-20 07:28:00,
2013-01-20 02:33:00,42.8,42.6,30.13,SE,135,0.0,0.0,99,0.00,,,0.00,meteohub,2013-01-20 07:33:00,
2013-01-20 02:38:00,42.8,42.6,30.13,SE,135,0.0,0.0,99,0.00,,,0.00,meteohub,2013-01-20 07:38:00,
2013-01-20 02:43:00,42.6,42.4,30.13,SE,135,0.0,0.0,99,0.00,,,0.00,meteohub,2013-01-20 07:43:00,
2013-01-20 02:48:00,42.8,42.6,30.12,SE,135,0.0,0.0,99,0.00,,,0.00,meteohub,2013-01-20 07:48:00,
2013-01-20 02:53:00,43.0,42.8,30.12,NW,315,1.0,0.0,99,0.00,,,0.00,meteohub,2013-01-20 07:53:00,
2013-01-20 02:58:00,43.2,43.0,30.12,West,270,1.0,1.0,99,0.00,,,0.00,meteohub,2013-01-20 07:58:00,
2013-01-20 03:03:00,43.3,43.2,30.12,North,0,0.0,2.0,99,0.00,,,0.00,meteohub,2013-01-20 08:03:00,
2013-01-20 03:08:00,43.5,43.3,30.13,NW,315,2.0,2.0,99,0.00,,,0.00,meteohub,2013-01-20 08:08:00,
2013-01-20 03:13:00,43.9,43.7,30.12,SE,135,1.0,6.0,99,0.00,,,0.00,meteohub,2013-01-20 08:13:00,
2013-01-20 03:19:00,43.7,43.5,30.12,South,180,0.0,6.0,99,0.00,,,0.00,meteohub,2013-01-20 08:19:00,
2013-01-20 03:24:00,43.5,43.3,30.12,SE,135,0.0,6.0,99,0.00,,,0.00,meteohub,2013-01-20 08:24:00,
2013-01-20 03:29:00,43.0,42.8,30.12,NW,315,0.0,2.0,99,0.00,,,0.00,meteohub,2013-01-20 08:29:00,
2013-01-20 03:34:00,42.8,42.6,30.12,NW,315,1.0,1.0,99,0.00,,,0.00,meteohub,2013-01-20 08:34:00,
2013-01-20 03:39:00,42.6,42.4,30.12,West,270,2.0,2.0,99,0.00,,,0.00,meteohub,2013-01-20 08:39:00,
2013-01-20 03:44:00,42.6,42.4,30.12,North,0,2.0,2.0,99,0.00,,,0.00,meteohub,2013-01-20 08:44:00,
2013-01-20 03:49:00,42.4,42.3,30.12,South,180,0.0,2.0,99,0.00,,,0.00,meteohub,2013-01-20 08:49:00,
2013-01-20 03:54:00,42.3,42.1,30.12,South,180,0.0,2.0,99,0.00,,,0.00,meteohub,2013-01-20 08:54:00,
2013-01-20 03:59:00,42.1,41.9,30.12,South,180,0.0,2.0,99,0.00,,,0.00,meteohub,2013-01-20 08:59:00,
2013-01-20 04:04:00,41.7,41.5,30.12,South,180,0.0,1.0,99,0.00,,,0.00,meteohub,2013-01-20 09:04:00,
2013-01-20 04:09:00,41.5,41.4,30.12,South,180,0.0,0.0,99,0.00,,,0.00,meteohub,2013-01-20 09:09:00,
2013-01-20 04:14:00,41.5,41.4,30.12,NW,315,0.0,0.0,99,0.00,,,0.00,meteohub,2013-01-20 09:14:00,
2013-01-20 04:19:00,41.7,41.5,30.12,West,270,0.0,0.0,99,0.00,,,0.00,meteohub,2013-01-20 09:19:00,
2013-01-20 04:24:00,41.4,41.2,30.12,West,270,0.0,1.0,99,0.00,,,0.00,meteohub,2013-01-20 09:24:00,
2013-01-20 04:30:00,41.2,41.0,30.12,North,0,0.0,1.0,99,0.00,,,0.00,meteohub,2013-01-20 09:30:00,
2013-01-20 04:35:00,41.2,41.0,30.11,West,270,1.0,0.0,99,0.00,,,0.00,meteohub,2013-01-20 09:35:00,
2013-01-20 04:40:00,41.2,41.0,30.11,North,0,1.0,2.0,99,0.00,,,0.00,meteohub,2013-01-20 09:40:00,
2013-01-20 04:45:00,41.0,40.8,30.12,NW,315,0.0,2.0,99,0.00,,,0.00,meteohub,2013-01-20 09:45:00,
2013-01-20 04:50:00,40.8,40.6,30.11,SW,225,1.0,2.0,99,0.00,,,0.00,meteohub,2013-01-20 09:50:00,
2013-01-20 04:55:00,40.8,40.6,30.11,SW,225,1.0,1.0,99,0.00,,,0.00,meteohub,2013-01-20 09:55:00,
2013-01-20 05:00:00,40.8,40.6,30.12,SW,225,0.0,2.0,99,0.00,,,0.00,meteohub,2013-01-20 10:00:00,
2013-01-20 05:05:00,40.6,40.5,30.11,SW,225,0.0,2.0,99,0.00,,,0.00,meteohub,2013-01-20 10:05:00,
2013-01-20 05:10:00,40.3,40.1,30.12,SW,225,0.0,2.0,99,0.00,,,0.00,meteohub,2013-01-20 10:10:00,
2013-01-20 05:15:00,40.1,39.9,30.11,SW,225,0.0,1.0,99,0.00,,,0.00,meteohub,2013-01-20 10:15:00,
2013-01-20 05:20:00,40.3,40.1,30.11,West,270,1.0,0.0,99,0.00,,,0.00,meteohub,2013-01-20 10:20:00,
2013-01-20 05:25:00,40.3,40.1,30.11,NW,315,1.0,2.0,99,0.00,,,0.00,meteohub,2013-01-20 10:25:00,
2013-01-20 05:30:00,40.1,39.9,30.11,North,0,0.0,2.0,99,0.00,,,0.00,meteohub,2013-01-20 10:30:00,
2013-01-20 05:35:00,40.1,39.9,30.12,NW,315,0.0,2.0,99,0.00,,,0.00,meteohub,2013-01-20 10:35:00,
2013-01-20 05:41:00,39.9,39.7,30.11,West,270,0.0,1.0,99,0.00,,,0.00,meteohub,2013-01-20 10:41:00,
2013-01-20 05:46:00,39.9,39.7,30.11,West,270,0.0,1.0,99,0.00,,,0.00,meteohub,2013-01-20 10:46:00,
2013-01-20 05:51:00,39.7,39.6,30.11,West,270,0.0,1.0,99,0.00,,,0.00,meteohub,2013-01-20 10:51:00,
2013-01-20 05:56:00,39.6,39.4,30.12,West,270,0.0,1.0,99,0.00,,,0.00,meteohub,2013-01-20 10:56:00,
2013-01-20 06:01:00,39.4,39.2,30.12,West,270,2.0,0.0,99,0.00,,,0.00,meteohub,2013-01-20 11:01:00,
2013-01-20 06:06:00,39.4,39.2,30.12,West,270,1.0,2.0,99,0.00,,,0.00,meteohub,2013-01-20 11:06:00,
2013-01-20 06:11:00,39.6,39.4,30.12,West,270,1.0,2.0,99,0.00,,,0.00,meteohub,2013-01-20 11:11:00,
2013-01-20 06:16:00,39.4,39.2,30.12,NW,315,1.0,2.0,99,0.00,,,0.00,meteohub,2013-01-20 11:16:00,
2013-01-20 06:22:00,39.2,39.0,30.12,NW,315,1.0,1.0,99,0.00,,,0.00,meteohub,2013-01-20 11:22:00,
2013-01-20 06:27:00,39.2,39.0,30.12,NW,315,1.0,1.0,99,0.00,,,0.00,meteohub,2013-01-20 11:27:00,
2013-01-20 06:32:00,39.2,39.0,30.12,NW,315,1.0,1.0,99,0.00,,,0.00,meteohub,2013-01-20 11:32:00,
2013-01-20 06:37:00,39.0,38.8,30.12,NW,315,0.0,1.0,99,0.00,,,0.00,meteohub,2013-01-20 11:37:00,
2013-01-20 06:42:00,38.8,38.7,30.12,NW,315,0.0,1.0,99,0.00,,,0.00,meteohub,2013-01-20 11:42:00,
2013-01-20 06:47:00,38.8,38.7,30.12,NW,315,0.0,1.0,99,0.00,,,0.00,meteohub,2013-01-20 11:47:00,
2013-01-20 06:52:00,38.7,38.5,30.12,NW,315,0.0,0.0,99,0.00,,,0.00,meteohub,2013-01-20 11:52:00,
2013-01-20 06:57:00,38.5,38.3,30.12,NW,315,0.0,0.0,99,0.00,,,0.00,meteohub,2013-01-20 11:57:00,
2013-01-20 07:02:00,38.3,38.1,30.13,NW,315,0.0,0.0,99,0.00,,,0.00,meteohub,2013-01-20 12:02:00,
2013-01-20 07:07:00,38.8,38.7,30.12,NW,315,0.0,0.0,99,0.00,,,0.00,meteohub,2013-01-20 12:07:00,
2013-01-20 07:12:00,39.0,38.8,30.12,NW,315,0.0,1.0,99,0.00,,,0.00,meteohub,2013-01-20 12:12:00,
2013-01-20 07:17:00,39.0,38.8,30.13,NW,315,0.0,1.0,99,0.00,,,0.00,meteohub,2013-01-20 12:17:00,
2013-01-20 07:22:00,39.0,38.8,30.13,NW,315,0.0,1.0,99,0.00,,,0.00,meteohub,2013-01-20 12:22:00,
2013-01-20 07:27:00,39.0,38.8,30.12,NW,315,0.0,0.0,99,0.00,,,0.00,meteohub,2013-01-20 12:27:00,
2013-01-20 07:32:00,39.0,38.8,30.13,NW,315,0.0,0.0,99,0.00,,,0.00,meteohub,2013-01-20 12:32:00,
2013-01-20 07:37:00,39.2,39.0,30.13,NW,315,0.0,0.0,99,0.00,,,0.00,meteohub,2013-01-20 12:37:00,
2013-01-20 07:42:00,39.6,39.4,30.12,NW,315,0.0,1.0,99,0.00,,,0.00,meteohub,2013-01-20 12:42:00,
2013-01-20 07:47:00,39.9,39.7,30.13,NW,315,0.0,1.0,99,0.00,,,0.00,meteohub,2013-01-20 12:47:00,
2013-01-20 07:52:00,40.3,40.1,30.12,SW,225,0.0,1.0,99,0.00,,,0.00,meteohub,2013-01-20 12:52:00,
2013-01-20 07:57:00,40.8,40.6,30.12,SW,225,0.0,0.0,99,0.00,,,0.00,meteohub,2013-01-20 12:57:00,
2013-01-20 08:02:00,41.2,41.0,30.13,SW,225,0.0,0.0,99,0.00,,,0.00,meteohub,2013-01-20 13:02:00,
2013-01-20 08:07:00,41.5,41.4,30.12,NW,315,0.0,0.0,99,0.00,,,0.00,meteohub,2013-01-20 13:07:00,
2013-01-20 08:13:00,42.1,41.9,30.13,WNW,293,0.0,1.0,99,0.00,,,0.00,meteohub,2013-01-20 13:13:00,
2013-01-20 08:18:00,42.3,42.1,30.13,South,180,0.0,1.0,99,0.00,,,0.00,meteohub,2013-01-20 13:18:00,
2013-01-20 08:23:00,42.3,42.1,30.13,SE,135,0.0,1.0,99,0.00,,,0.00,meteohub,2013-01-20 13:23:00,
2013-01-20 08:28:00,42.6,42.4,30.14,SE,135,0.0,1.0,99,0.00,,,0.00,meteohub,2013-01-20 13:28:00,
2013-01-20 08:33:00,43.0,42.8,30.13,South,180,1.0,1.0,99,0.00,,,0.00,meteohub,2013-01-20 13:33:00,
2013-01-20 08:38:00,43.5,43.3,30.13,SE,135,2.0,2.0,99,0.00,,,0.00,meteohub,2013-01-20 13:38:00,
2013-01-20 08:44:00,43.9,43.7,30.13,SE,135,0.0,2.0,99,0.00,,,0.00,meteohub,2013-01-20 13:44:00,
2013-01-20 08:49:00,44.6,44.4,30.13,SE,135,2.0,2.0,99,0.00,,,0.00,meteohub,2013-01-20 13:49:00,
2013-01-20 08:54:00,45.9,45.7,30.14,South,180,1.0,2.0,99,0.00,,,0.00,meteohub,2013-01-20 13:54:00,
2013-01-20 08:59:00,47.3,47.1,30.14,South,180,3.0,3.0,99,0.00,,,0.00,meteohub,2013-01-20 13:59:00,
2013-01-20 09:04:00,48.7,48.6,30.14,North,0,4.0,4.0,99,0.00,,,0.00,meteohub,2013-01-20 14:04:00,
2013-01-20 09:09:00,49.6,49.5,30.14,NW,315,3.0,4.0,99,0.00,,,0.00,meteohub,2013-01-20 14:09:00,
2013-01-20 09:14:00,50.5,50.2,30.14,North,0,4.0,6.0,99,0.00,,,0.00,meteohub,2013-01-20 14:14:00,
2013-01-20 09:19:00,51.1,50.7,30.14,North,0,4.0,6.0,99,0.00,,,0.00,meteohub,2013-01-20 14:19:00,
2013-01-20 09:24:00,51.6,51.3,30.14,North,0,2.0,6.0,99,0.00,,,0.00,meteohub,2013-01-20 14:24:00,
2013-01-20 09:29:00,51.8,51.4,30.15,NNW,338,4.0,5.0,99,0.00,,,0.00,meteohub,2013-01-20 14:29:00,
2013-01-20 09:35:00,52.2,51.8,30.15,North,0,5.0,5.0,99,0.00,,,0.00,meteohub,2013-01-20 14:35:00,
2013-01-20 09:40:00,52.7,52.3,30.15,NW,315,4.0,6.0,99,0.00,,,0.00,meteohub,2013-01-20 14:40:00,
2013-01-20 09:45:00,52.9,52.5,30.15,NW,315,4.0,6.0,99,0.00,,,0.00,meteohub,2013-01-20 14:45:00,
2013-01-20 09:50:00,53.6,53.2,30.14,NW,315,2.0,5.0,99,0.00,,,0.00,meteohub,2013-01-20 14:50:00,
2013-01-20 09:55:00,54.3,54.0,30.14,NW,315,2.0,4.0,99,0.00,,,0.00,meteohub,2013-01-20 14:55:00,
2013-01-20 10:00:00,54.7,54.3,30.14,NW,315,4.0,8.0,99,0.00,,,0.00,meteohub,2013-01-20 15:00:00,
2013-01-20 10:05:00,55.2,54.9,30.14,North,0,4.0,8.0,99,0.00,,,0.00,meteohub,2013-01-20 15:05:00,
2013-01-20 10:10:00,56.1,55.8,30.14,North,0,4.0,8.0,99,0.00,,,0.00,meteohub,2013-01-20 15:10:00,
2013-01-20 10:15:00,56.8,56.5,30.14,NW,315,4.0,8.0,99,0.00,,,0.00,meteohub,2013-01-20 15:15:00,
2013-01-20 10:21:00,57.6,57.0,30.14,North,0,5.0,5.0,98,0.00,,,0.00,meteohub,2013-01-20 15:21:00,
2013-01-20 10:26:00,58.3,57.4,30.14,NW,315,2.0,5.0,97,0.00,,,0.00,meteohub,2013-01-20 15:26:00,
2013-01-20 10:31:00,59.0,57.9,30.14,North,0,3.0,5.0,96,0.00,,,0.00,meteohub,2013-01-20 15:31:00,
2013-01-20 10:36:00,59.4,57.4,30.14,West,270,4.0,5.0,93,0.00,,,0.00,meteohub,2013-01-20 15:36:00,
2013-01-20 10:41:00,59.7,56.1,30.13,West,270,4.0,6.0,88,0.00,,,0.00,meteohub,2013-01-20 15:41:00,
2013-01-20 10:46:00,60.6,56.5,30.14,NW,315,7.0,7.0,86,0.00,,,0.00,meteohub,2013-01-20 15:46:00,
2013-01-20 10:51:00,61.2,55.9,30.13,North,0,5.0,8.0,83,0.00,,,0.00,meteohub,2013-01-20 15:51:00,
2013-01-20 10:56:00,61.5,55.9,30.12,North,0,3.0,8.0,82,0.00,,,0.00,meteohub,2013-01-20 15:56:00,
2013-01-20 11:01:00,62.6,55.9,30.12,NNW,338,6.0,8.0,79,0.00,,,0.00,meteohub,2013-01-20 16:01:00,
2013-01-20 11:06:00,63.7,55.9,30.12,West,270,6.0,8.0,76,0.00,,,0.00,meteohub,2013-01-20 16:06:00,
2013-01-20 11:11:00,64.0,55.2,30.12,North,0,6.0,8.0,73,0.00,,,0.00,meteohub,2013-01-20 16:11:00,
2013-01-20 11:16:00,64.0,55.6,30.11,North,0,4.0,8.0,74,0.00,,,0.00,meteohub,2013-01-20 16:16:00,
2013-01-20 11:21:00,64.4,56.3,30.11,NW,315,3.0,11.0,75,0.00,,,0.00,meteohub,2013-01-20 16:21:00,
2013-01-20 11:27:00,65.1,56.7,30.11,NW,315,4.0,11.0,74,0.00,,,0.00,meteohub,2013-01-20 16:27:00,
2013-01-20 11:32:00,65.3,56.5,30.10,NW,315,6.0,8.0,73,0.00,,,0.00,meteohub,2013-01-20 16:32:00,
2013-01-20 11:37:00,65.5,56.7,30.10,NE,45,7.0,8.0,73,0.00,,,0.00,meteohub,2013-01-20 16:37:00,
2013-01-20 11:42:00,66.0,55.9,30.09,North,0,6.0,10.0,70,0.00,,,0.00,meteohub,2013-01-20 16:42:00,
2013-01-20 11:47:00,66.2,55.4,30.09,North,0,8.0,10.0,68,0.00,,,0.00,meteohub,2013-01-20 16:47:00,
2013-01-20 11:52:00,66.6,56.1,30.09,NNW,338,5.0,10.0,69,0.00,,,0.00,meteohub,2013-01-20 16:52:00,
2013-01-20 11:57:00,67.3,57.2,30.08,NW,315,4.0,8.0,70,0.00,,,0.00,meteohub,2013-01-20 16:57:00,
2013-01-20 12:02:00,67.8,56.8,30.09,NW,315,9.0,9.0,68,0.00,,,0.00,meteohub,2013-01-20 17:02:00,
2013-01-20 12:07:00,68.4,56.1,30.07,WNW,293,8.0,9.0,65,0.00,,,0.00,meteohub,2013-01-20 17:07:00,
2013-01-20 12:12:00,68.2,55.6,30.07,North,0,8.0,13.0,64,0.00,,,0.00,meteohub,2013-01-20 17:12:00,
2013-01-20 12:17:00,67.6,55.0,30.06,WNW,293,8.0,14.0,64,0.00,,,0.00,meteohub,2013-01-20 17:17:00,
2013-01-20 12:22:00,68.0,55.8,30.06,NW,315,6.0,14.0,65,0.00,,,0.00,meteohub,2013-01-20 17:22:00,
2013-01-20 12:27:00,67.3,54.3,30.05,NNW,338,6.0,12.0,63,0.00,,,0.00,meteohub,2013-01-20 17:27:00,
2013-01-20 12:32:00,68.0,55.4,30.05,NW,315,5.0,12.0,64,0.00,,,0.00,meteohub,2013-01-20 17:32:00,
2013-01-20 12:37:00,69.6,55.0,30.05,NW,315,13.0,13.0,60,0.00,,,0.00,meteohub,2013-01-20 17:37:00,
2013-01-20 12:42:00,71.2,55.8,30.05,North,0,9.0,13.0,58,0.00,,,0.00,meteohub,2013-01-20 17:42:00,
2013-01-20 12:47:00,72.0,55.9,30.04,North,0,8.0,13.0,57,0.00,,,0.00,meteohub,2013-01-20 17:47:00,
2013-01-20 12:52:00,72.1,55.0,30.04,North,0,8.0,13.0,55,0.00,,,0.00,meteohub,2013-01-20 17:52:00,
2013-01-20 12:57:00,71.8,55.8,30.04,North,0,8.0,10.0,57,0.00,,,0.00,meteohub,2013-01-20 17:57:00,
2013-01-20 13:02:00,71.2,55.2,30.03,North,0,4.0,9.0,57,0.00,,,0.00,meteohub,2013-01-20 18:02:00,
2013-01-20 13:07:00,70.7,54.7,30.03,NW,315,9.0,9.0,57,0.00,,,0.00,meteohub,2013-01-20 18:07:00,
2013-01-20 13:12:00,71.6,54.5,30.03,North,0,7.0,12.0,55,0.00,,,0.00,meteohub,2013-01-20 18:12:00,
2013-01-20 13:17:00,72.3,55.2,30.02,North,0,8.0,12.0,55,0.00,,,0.00,meteohub,2013-01-20 18:17:00,
2013-01-20 13:22:00,73.4,55.8,30.01,North,0,6.0,12.0,54,0.00,,,0.00,meteohub,2013-01-20 18:22:00,
2013-01-20 13:27:00,73.8,56.7,30.02,NW,315,4.0,9.0,55,0.00,,,0.00,meteohub,2013-01-20 18:27:00,
2013-01-20 13:32:00,74.1,56.5,30.01,North,0,8.0,9.0,54,0.00,,,0.00,meteohub,2013-01-20 18:32:00,
2013-01-20 13:37:00,74.3,56.1,30.01,NW,315,4.0,10.0,53,0.00,,,0.00,meteohub,2013-01-20 18:37:00,
2013-01-20 13:42:00,74.5,56.3,30.01,NW,315,7.0,10.0,53,0.00,,,0.00,meteohub,2013-01-20 18:42:00,
2013-01-20 13:47:00,75.2,56.3,30.01,NW,315,7.0,10.0,52,0.00,,,0.00,meteohub,2013-01-20 18:47:00,
2013-01-20 13:52:00,74.7,55.4,30.01,NW,315,8.0,8.0,51,0.00,,,0.00,meteohub,2013-01-20 18:52:00,
2013-01-20 13:57:00,75.0,55.6,30.00,NW,315,6.0,15.0,51,0.00,,,0.00,meteohub,2013-01-20 18:57:00,
2013-01-20 14:02:00,75.6,56.1,30.00,NW,315,3.0,15.0,51,0.00,,,0.00,meteohub,2013-01-20 19:02:00,
2013-01-20 14:07:00,76.6,56.1,30.00,WNW,293,6.0,13.0,49,0.00,,,0.00,meteohub,2013-01-20 19:07:00,
2013-01-20 14:12:00,76.1,55.0,30.00,North,0,6.0,8.0,48,0.00,,,0.00,meteohub,2013-01-20 19:12:00,
2013-01-20 14:17:00,75.2,55.2,30.00,NW,315,7.0,8.0,50,0.00,,,0.00,meteohub,2013-01-20 19:17:00,
2013-01-20 14:22:00,75.9,54.9,30.00,North,0,4.0,9.0,48,0.00,,,0.00,meteohub,2013-01-20 19:22:00,
2013-01-20 14:28:00,76.8,56.3,30.00,North,0,4.0,9.0,49,0.00,,,0.00,meteohub,2013-01-20 19:28:00,
2013-01-20 14:33:00,77.4,53.1,30.00,North,0,8.0,8.0,43,0.00,,,0.00,meteohub,2013-01-20 19:33:00,
2013-01-20 14:38:00,75.9,51.8,29.99,NW,315,11.0,11.0,43,0.00,,,0.00,meteohub,2013-01-20 19:38:00,
2013-01-20 14:43:00,75.6,52.2,29.99,North,0,7.0,11.0,44,0.00,,,0.00,meteohub,2013-01-20 19:43:00,
2013-01-20 14:48:00,75.4,52.5,29.99,NW,315,4.0,11.0,45,0.00,,,0.00,meteohub,2013-01-20 19:48:00,
2013-01-20 14:53:00,75.7,52.3,29.99,NW,315,5.0,11.0,44,0.00,,,0.00,meteohub,2013-01-20 19:53:00,
2013-01-20 14:58:00,75.9,52.5,29.99,NW,315,5.0,11.0,44,0.00,,,0.00,meteohub,2013-01-20 19:58:00,
2013-01-20 15:03:00,75.6,52.7,29.99,NW,315,5.0,11.0,45,0.00,,,0.00,meteohub,2013-01-20 20:03:00,
2013-01-20 15:08:00,73.9,51.3,29.99,NE,45,6.0,11.0,45,0.00,,,0.00,meteohub,2013-01-20 20:08:00,
2013-01-20 15:13:00,72.9,52.5,29.99,NW,315,3.0,8.0,49,0.00,,,0.00,meteohub,2013-01-20 20:13:00,
2013-01-20 15:18:00,72.3,53.2,29.99,NW,315,3.0,7.0,51,0.00,,,0.00,meteohub,2013-01-20 20:18:00,
2013-01-20 15:23:00,71.8,51.6,29.99,North,0,7.0,7.0,49,0.00,,,0.00,meteohub,2013-01-20 20:23:00,
2013-01-20 15:29:00,71.4,52.3,29.98,WNW,293,8.0,8.0,51,0.00,,,0.00,meteohub,2013-01-20 20:29:00,
2013-01-20 15:34:00,70.9,51.3,29.99,West,270,5.0,8.0,50,0.00,,,0.00,meteohub,2013-01-20 20:34:00,
2013-01-20 15:39:00,71.2,50.5,29.99,NW,315,6.0,9.0,48,0.00,,,0.00,meteohub,2013-01-20 20:39:00,
2013-01-20 15:44:00,72.5,50.5,29.99,NW,315,6.0,10.0,46,0.00,,,0.00,meteohub,2013-01-20 20:44:00,
2013-01-20 15:49:00,74.1,51.4,29.99,West,270,4.0,10.0,45,0.00,,,0.00,meteohub,2013-01-20 20:49:00,
2013-01-20 15:54:00,75.4,52.0,29.99,East,90,4.0,10.0,44,0.00,,,0.00,meteohub,2013-01-20 20:54:00,
2013-01-20 16:00:00,75.4,50.7,29.99,NW,315,5.0,7.0,42,0.00,,,0.00,meteohub,2013-01-20 21:00:00,
2013-01-20 16:05:00,75.6,50.2,29.99,North,0,4.0,11.0,41,0.00,,,0.00,meteohub,2013-01-20 21:05:00,
2013-01-20 16:10:00,76.1,51.3,30.00,NW,315,4.0,11.0,42,0.00,,,0.00,meteohub,2013-01-20 21:10:00,
2013-01-20 16:15:00,75.6,51.4,29.99,NW,315,4.0,7.0,43,0.00,,,0.00,meteohub,2013-01-20 21:15:00,
2013-01-20 16:20:00,76.8,52.7,29.99,NW,315,2.0,7.0,43,0.00,,,0.00,meteohub,2013-01-20 21:20:00,
2013-01-20 16:25:00,77.9,52.3,30.00,NNW,338,4.0,7.0,41,0.00,,,0.00,meteohub,2013-01-20 21:25:00,
2013-01-20 16:31:00,76.6,51.8,29.99,West,270,5.0,5.0,42,0.00,,,0.00,meteohub,2013-01-20 21:31:00,
2013-01-20 16:36:00,76.5,51.6,29.99,WNW,293,4.0,5.0,42,0.00,,,0.00,meteohub,2013-01-20 21:36:00,
2013-01-20 16:41:00,75.6,50.9,29.99,NW,315,4.0,5.0,42,0.00,,,0.00,meteohub,2013-01-20 21:41:00,
2013-01-20 16:46:00,74.5,51.1,29.99,West,270,2.0,7.0,44,0.00,,,0.00,meteohub,2013-01-20 21:46:00,
2013-01-20 16:52:00,74.8,50.9,29.99,North,0,4.0,7.0,43,0.00,,,0.00,meteohub,2013-01-20 21:52:00,
2013-01-20 16:57:00,74.5,49.8,29.99,NW,315,2.0,7.0,42,0.00,,,0.00,meteohub,2013-01-20 21:57:00,
2013-01-20 17:02:00,75.2,51.1,29.99,NW,315,2.0,4.0,43,0.00,,,0.00,meteohub,2013-01-20 22:02:00,
2013-01-20 17:08:00,74.8,50.9,30.00,NW,315,2.0,4.0,43,0.00,,,0.00,meteohub,2013-01-20 22:08:00,
2013-01-20 17:13:00,74.3,51.6,30.00,West,270,2.0,4.0,45,0.00,,,0.00,meteohub,2013-01-20 22:13:00,
2013-01-20 17:19:00,73.9,51.8,30.00,NW,315,0.0,3.0,46,0.00,,,0.00,meteohub,2013-01-20 22:19:00,
2013-01-20 17:24:00,74.7,54.3,29.99,NW,315,0.0,2.0,49,0.00,,,0.00,meteohub,2013-01-20 22:24:00,
2013-01-20 17:29:00,72.1,53.1,30.00,SW,225,0.0,2.0,51,0.00,,,0.00,meteohub,2013-01-20 22:29:00,
2013-01-20 17:34:00,68.2,51.8,30.00,West,270,0.0,2.0,56,0.00,,,0.00,meteohub,2013-01-20 22:34:00,
2013-01-20 17:40:00,64.0,51.3,30.00,West,270,0.0,0.0,63,0.00,,,0.00,meteohub,2013-01-20 22:40:00,
2013-01-20 17:45:00,61.3,50.4,30.00,West,270,0.0,1.0,67,0.00,,,0.00,meteohub,2013-01-20 22:45:00,
2013-01-20 17:50:00,59.5,50.2,30.00,West,270,0.0,1.0,71,0.00,,,0.00,meteohub,2013-01-20 22:50:00,
2013-01-20 17:55:00,57.7,49.5,30.01,SW,225,0.0,0.0,74,0.00,,,0.00,meteohub,2013-01-20 22:55:00,
2013-01-20 18:01:00,56.5,49.6,30.00,SW,225,1.0,0.0,78,0.00,,,0.00,meteohub,2013-01-20 23:01:00,
2013-01-20 18:06:00,55.2,49.5,30.01,NW,315,0.0,1.0,81,0.00,,,0.00,meteohub,2013-01-20 23:06:00,
2013-01-20 18:11:00,54.3,48.9,30.01,West,270,0.0,1.0,82,0.00,,,0.00,meteohub,2013-01-20 23:11:00,
2013-01-20 18:17:00,53.6,48.2,30.01,West,270,0.0,1.0,82,0.00,,,0.00,meteohub,2013-01-20 23:17:00,
2013-01-20 18:22:00,52.7,48.0,30.01,West,270,0.0,1.0,84,0.00,,,0.00,meteohub,2013-01-20 23:22:00,
2013-01-20 18:27:00,52.3,48.2,30.01,West,270,0.0,1.0,86,0.00,,,0.00,meteohub,2013-01-20 23:27:00,
2013-01-20 18:32:00,51.8,48.4,30.01,West,270,0.0,0.0,88,0.00,,,0.00,meteohub,2013-01-20 23:32:00,
2013-01-20 18:38:00,51.3,48.7,30.01,West,270,0.0,1.0,91,0.00,,,0.00,meteohub,2013-01-20 23:38:00,
2013-01-20 18:43:00,50.7,48.2,30.01,West,270,0.0,1.0,91,0.00,,,0.00,meteohub,2013-01-20 23:43:00,
2013-01-20 18:48:00,50.2,48.0,30.01,West,270,0.0,1.0,92,0.00,,,0.00,meteohub,2013-01-20 23:48:00,
2013-01-20 18:53:00,49.6,48.2,30.01,West,270,0.0,1.0,95,0.00,,,0.00,meteohub,2013-01-20 23:53:00,
2013-01-20 18:59:00,49.1,47.7,30.01,West,270,0.0,0.0,95,0.00,,,0.00,meteohub,2013-01-20 23:59:00,
2013-01-20 19:04:00,48.6,47.7,30.02,West,270,0.0,0.0,97,0.00,,,0.00,meteohub,2013-01-21 00:04:00,
2013-01-20 19:09:00,48.2,47.7,30.02,West,270,0.0,0.0,98,0.00,,,0.00,meteohub,2013-01-21 00:09:00,
2013-01-20 19:14:00,48.0,47.8,30.01,NW,315,0.0,0.0,99,0.00,,,0.00,meteohub,2013-01-21 00:14:00,
2013-01-20 19:20:00,47.7,47.5,30.01,NW,315,0.0,0.0,99,0.00,,,0.00,meteohub,2013-01-21 00:20:00,
2013-01-20 19:25:00,47.5,47.3,30.02,NW,315,0.0,0.0,99,0.00,,,0.00,meteohub,2013-01-21 00:25:00,
2013-01-20 19:30:00,47.5,47.3,30.02,NW,315,1.0,0.0,99,0.00,,,0.00,meteohub,2013-01-21 00:30:00,
2013-01-20 19:35:00,47.1,46.9,30.02,NW,315,0.0,1.0,99,0.00,,,0.00,meteohub,2013-01-21 00:35:00,
2013-01-20 19:40:00,46.8,46.6,30.02,NW,315,0.0,1.0,99,0.00,,,0.00,meteohub,2013-01-21 00:40:00,
2013-01-20 19:45:00,46.4,46.2,30.02,NW,315,0.0,1.0,99,0.00,,,0.00,meteohub,2013-01-21 00:45:00,
2013-01-20 19:51:00,46.2,46.0,30.02,NW,315,0.0,0.0,99,0.00,,,0.00,meteohub,2013-01-21 00:51:00,
2013-01-20 19:56:00,45.9,45.7,30.02,NW,315,0.0,0.0,99,0.00,,,0.00,meteohub,2013-01-21 00:56:00,
2013-01-20 20:01:00,45.7,45.5,30.02,SW,225,0.0,0.0,99,0.00,,,0.00,meteohub,2013-01-21 01:01:00,
2013-01-20 20:06:00,45.7,45.5,30.02,SW,225,0.0,1.0,99,0.00,,,0.00,meteohub,2013-01-21 01:06:00,
2013-01-20 20:12:00,45.5,45.3,30.02,NW,315,1.0,1.0,99,0.00,,,0.00,meteohub,2013-01-21 01:12:00,
2013-01-20 20:17:00,45.5,45.3,30.02,NW,315,1.0,1.0,99,0.00,,,0.00,meteohub,2013-01-21 01:17:00,
2013-01-20 20:22:00,45.3,45.1,30.02,SW,225,1.0,1.0,99,0.00,,,0.00,meteohub,2013-01-21 01:22:00,
2013-01-20 20:27:00,44.8,44.6,30.02,West,270,0.0,1.0,99,0.00,,,0.00,meteohub,2013-01-21 01:27:00,
2013-01-20 20:32:00,44.6,44.4,30.03,West,270,1.0,1.0,99,0.00,,,0.00,meteohub,2013-01-21 01:32:00,
2013-01-20 20:38:00,44.8,44.6,30.02,West,270,1.0,1.0,99,0.00,,,0.00,meteohub,2013-01-21 01:38:00,
2013-01-20 20:43:00,44.6,44.4,30.02,West,270,0.0,1.0,99,0.00,,,0.00,meteohub,2013-01-21 01:43:00,
2013-01-20 20:48:00,44.2,44.1,30.03,West,270,0.0,1.0,99,0.00,,,0.00,meteohub,2013-01-21 01:48:00,
2013-01-20 20:53:00,43.9,43.7,30.03,West,270,0.0,1.0,99,0.00,,,0.00,meteohub,2013-01-21 01:53:00,
2013-01-20 20:59:00,43.7,43.5,30.03,West,270,0.0,0.0,99,0.00,,,0.00,meteohub,2013-01-21 01:59:00,
2013-01-20 21:04:00,43.7,43.5,30.03,West,270,0.0,0.0,99,0.00,,,0.00,meteohub,2013-01-21 02:04:00,
2013-01-20 21:09:00,43.7,43.5,30.03,West,270,0.0,0.0,99,0.00,,,0.00,meteohub,2013-01-21 02:09:00,
2013-01-20 21:15:00,43.7,43.5,30.03,West,270,0.0,1.0,99,0.00,,,0.00,meteohub,2013-01-21 02:15:00,
2013-01-20 21:20:00,43.5,43.3,30.03,West,270,0.0,1.0,99,0.00,,,0.00,meteohub,2013-01-21 02:20:00,
2013-01-20 21:25:00,43.2,43.0,30.03,West,270,0.0,1.0,99,0.00,,,0.00,meteohub,2013-01-21 02:25:00,
2013-01-20 21:30:00,43.0,42.8,30.03,West,270,0.0,1.0,99,0.00,,,0.00,meteohub,2013-01-21 02:30:00,
2013-01-20 21:35:00,42.6,42.4,30.03,SE,135,0.0,0.0,99,0.00,,,0.00,meteohub,2013-01-21 02:35:00,
2013-01-20 21:40:00,42.4,42.3,30.03,SE,135,0.0,0.0,99,0.00,,,0.00,meteohub,2013-01-21 02:40:00,
2013-01-20 21:45:00,42.1,41.9,30.04,West,270,0.0,0.0,99,0.00,,,0.00,meteohub,2013-01-21 02:45:00,
2013-01-20 21:51:00,42.3,42.1,30.04,West,270,0.0,0.0,99,0.00,,,0.00,meteohub,2013-01-21 02:51:00,
2013-01-20 21:56:00,42.3,42.1,30.03,West,270,0.0,0.0,99,0.00,,,0.00,meteohub,2013-01-21 02:56:00,
2013-01-20 22:02:00,42.4,42.3,30.03,West,270,0.0,1.0,99,0.00,,,0.00,meteohub,2013-01-21 03:02:00,
2013-01-20 22:07:00,42.3,42.1,30.03,West,270,0.0,1.0,99,0.00,,,0.00,meteohub,2013-01-21 03:07:00,
2013-01-20 22:12:00,42.1,41.9,30.03,SE,135,0.0,1.0,99,0.00,,,0.00,meteohub,2013-01-21 03:12:00,
2013-01-20 22:17:00,41.5,41.4,30.03,SE,135,0.0,1.0,99,0.00,,,0.00,meteohub,2013-01-21 03:17:00,
2013-01-20 22:22:00,41.4,41.2,30.03,West,270,1.0,1.0,99,0.00,,,0.00,meteohub,2013-01-21 03:22:00,
2013-01-20 22:27:00,41.4,41.2,30.04,West,270,1.0,1.0,99,0.00,,,0.00,meteohub,2013-01-21 03:27:00,
2013-01-20 22:32:00,41.4,41.2,30.04,West,270,0.0,1.0,99,0.00,,,0.00,meteohub,2013-01-21 03:32:00,
2013-01-20 22:37:00,41.2,41.0,30.04,West,270,0.0,1.0,99,0.00,,,0.00,meteohub,2013-01-21 03:37:00,
2013-01-20 22:43:00,41.2,41.0,30.04,West,270,0.0,1.0,99,0.00,,,0.00,meteohub,2013-01-21 03:43:00,
2013-01-20 22:48:00,41.0,40.8,30.04,West,270,0.0,0.0,99,0.00,,,0.00,meteohub,2013-01-21 03:48:00,
2013-01-20 22:53:00,40.6,40.5,30.03,West,270,0.0,0.0,99,0.00,,,0.00,meteohub,2013-01-21 03:53:00,
2013-01-20 22:59:00,40.5,40.3,30.03,West,270,0.0,0.0,99,0.00,,,0.00,meteohub,2013-01-21 03:59:00,
2013-01-20 23:04:00,40.1,39.9,30.03,West,270,0.0,0.0,99,0.00,,,0.00,meteohub,2013-01-21 04:04:00,
2013-01-20 23:09:00,39.9,39.7,30.04,West,270,0.0,0.0,99,0.00,,,0.00,meteohub,2013-01-21 04:09:00,
2013-01-20 23:14:00,40.1,39.9,30.03,West,270,0.0,0.0,99,0.00,,,0.00,meteohub,2013-01-21 04:14:00,
2013-01-20 23:19:00,40.1,39.9,30.03,West,270,0.0,0.0,99,0.00,,,0.00,meteohub,2013-01-21 04:19:00,
2013-01-20 23:24:00,39.9,39.7,30.03,West,270,0.0,0.0,99,0.00,,,0.00,meteohub,2013-01-21 04:24:00,
2013-01-20 23:30:00,39.7,39.6,30.03,West,270,0.0,0.0,99,0.00,,,0.00,meteohub,2013-01-21 04:30:00,
2013-01-20 23:35:00,39.6,39.4,30.03,West,270,0.0,0.0,99,0.00,,,0.00,meteohub,2013-01-21 04:35:00,
2013-01-20 23:40:00,39.2,39.0,30.03,West,270,0.0,0.0,99,0.00,,,0.00,meteohub,2013-01-21 04:40:00,
2013-01-20 23:45:00,39.0,38.8,30.03,West,270,0.0,0.0,99,0.00,,,0.00,meteohub,2013-01-21 04:45:00,
2013-01-20 23:50:00,39.0,38.8,30.03,West,270,0.0,0.0,99,0.00,,,0.00,meteohub,2013-01-21 04:50:00,
2013-01-20 23:56:00,38.8,38.7,30.03,West,270,0.0,0.0,99,0.00,,,0.00,meteohub,2013-01-21 04:56:00,